Time;durP1;ratioP1;P1;durP2;ratioP2;P2;SDS_P1;SDS_P2;PMS_P1;PMS_P2;Temp;Humidity;BMP_temperature;BMP_pressure;BME280_temperature;BME280_humidity;BME280_pressure;Samples;Min_cycle;Max_cycle;Signal;HPM_P1;HPM_P2
2021/09/14 00:00:10;;;;;;;22.35;13.35;;;;;;;16.15;55.28;100051.31;5069683;28;20020;-22
2021/09/14 00:02:36;;;;;;;19.27;14.80;;;;;;;16.07;56.53;100045.31;5069824;28;20407;-22
2021/09/14 00:05:02;;;;;;;20.20;13.85;;;;;;;16.15;56.35;100046.72;5069959;28;20029;-22
2021/09/14 00:07:27;;;;;;;21.88;15.32;;;;;;;16.40;55.68;100037.22;5069686;28;20037;-22
2021/09/14 00:09:55;;;;;;;24.60;16.63;;;;;;;16.28;56.06;100045.47;5069387;28;20025;-23
2021/09/14 00:12:20;;;;;;;23.63;16.80;;;;;;;16.08;56.07;100040.75;5069847;28;20028;-22
2021/09/14 00:14:46;;;;;;;26.20;14.77;;;;;;;15.98;57.02;100052.22;5069520;28;20095;-22
2021/09/14 00:17:11;;;;;;;24.25;16.83;;;;;;;16.26;55.70;100048.44;5069605;28;20028;-22
2021/09/14 00:19:37;;;;;;;22.92;15.45;;;;;;;16.40;55.31;100043.41;5069426;28;20502;-22
2021/09/14 00:22:02;;;;;;;25.50;16.80;;;;;;;16.74;54.25;100051.19;5069454;28;20025;-22
2021/09/14 00:24:28;;;;;;;191.85;107.03;;;;;;;17.10;53.39;100048.75;5069598;28;20029;-22
2021/09/14 00:26:53;;;;;;;41.35;28.30;;;;;;;17.16;53.49;100053.09;5069715;28;20032;-24
2021/09/14 00:29:18;;;;;;;22.80;16.83;;;;;;;16.75;55.10;100039.34;5069218;28;20403;-31
2021/09/14 00:31:44;;;;;;;29.60;19.30;;;;;;;17.00;55.98;100043.28;5069072;28;20082;-22
2021/09/14 00:34:09;;;;;;;24.48;17.45;;;;;;;17.09;55.60;100049.81;5069345;28;20033;-22
2021/09/14 00:36:35;;;;;;;24.10;15.82;;;;;;;17.05;55.11;100046.81;5051258;28;20403;-22
2021/09/14 00:39:00;;;;;;;24.52;16.48;;;;;;;17.06;54.70;100044.91;5069349;28;20025;-22
2021/09/14 00:41:26;;;;;;;20.20;14.43;;;;;;;17.10;54.63;100048.75;5069391;28;20035;-22
2021/09/14 00:43:58;;;;;;;25.75;16.15;;;;;;;17.06;55.16;100044.91;5069159;28;20454;-22
2021/09/14 00:46:24;;;;;;;22.33;16.23;;;;;;;16.87;55.35;100037.28;5069093;28;20036;-22
2021/09/14 00:48:49;;;;;;;21.80;16.08;;;;;;;16.80;56.14;100039.38;5068961;28;20032;-22
2021/09/14 00:51:15;;;;;;;20.10;15.27;;;;;;;16.81;55.38;100043.72;5069033;28;20033;-23
2021/09/14 00:53:40;;;;;;;20.58;16.38;;;;;;;16.79;55.60;100032.38;5068847;28;20064;-22
2021/09/14 00:56:06;;;;;;;22.30;16.10;;;;;;;16.29;56.62;100014.81;5051048;28;20075;-22
2021/09/14 00:58:31;;;;;;;20.92;15.55;;;;;;;16.17;57.50;100024.97;5050992;28;20030;-23
2021/09/14 01:00:57;;;;;;;22.25;15.98;;;;;;;16.35;57.66;100046.09;5069080;28;20029;-22
2021/09/14 01:03:22;;;;;;;23.00;15.85;;;;;;;16.46;56.23;100045.09;5068861;28;20493;-22
2021/09/14 01:05:48;;;;;;;22.17;15.55;;;;;;;16.67;55.39;100031.75;5068335;28;20039;-22
2021/09/14 01:08:13;;;;;;;20.35;14.88;;;;;;;16.56;56.51;100030.88;5068714;28;20043;-22
2021/09/14 01:10:39;;;;;;;19.00;14.45;;;;;;;16.75;55.02;100038.53;5050733;28;20036;-22
2021/09/14 01:13:04;;;;;;;20.48;13.70;;;;;;;16.87;54.86;100033.78;5050601;28;20036;-22
2021/09/14 01:15:30;;;;;;;17.75;13.52;;;;;;;16.55;55.48;100023.06;5068560;28;20029;-23
2021/09/14 01:17:55;;;;;;;21.25;13.95;;;;;;;16.44;56.40;100033.75;5050374;28;20064;-22
2021/09/14 01:20:20;;;;;;;16.80;14.18;;;;;;;16.51;56.05;100017.41;5068403;28;20033;-22
2021/09/14 01:22:46;;;;;;;22.20;15.00;;;;;;;16.49;56.08;100016.84;5068411;28;20404;-22
2021/09/14 01:25:19;;;;;;;21.75;15.85;;;;;;;16.86;55.51;100034.88;5068482;28;20032;-22
2021/09/14 01:27:45;;;;;;;23.25;16.50;;;;;;;16.92;55.21;100033.84;5067993;28;20024;-22
2021/09/14 01:30:12;;;;;;;26.45;18.85;;;;;;;16.83;55.17;100025.41;5068203;28;20070;-22
2021/09/14 01:32:39;;;;;;;27.42;18.85;;;;;;;17.20;54.24;100038.00;5068363;28;20035;-22
2021/09/14 01:35:08;;;;;;;22.63;17.55;;;;;;;17.53;53.51;100044.03;5068264;28;20459;-22
2021/09/14 01:37:33;;;;;;;22.73;16.90;;;;;;;17.40;53.46;100041.84;5068161;28;20036;-22
2021/09/14 01:39:59;;;;;;;25.38;16.98;;;;;;;17.51;53.12;100040.81;5067598;28;20473;-22
2021/09/14 01:42:24;;;;;;;23.65;17.70;;;;;;;17.53;53.63;100052.13;5068393;28;20043;-23
2021/09/14 01:44:50;;;;;;;21.42;18.35;;;;;;;17.27;53.57;100016.19;5068027;28;20505;-23
2021/09/14 01:47:15;;;;;;;23.25;16.95;;;;;;;17.22;53.69;100026.94;5067761;28;20040;-22
2021/09/14 01:49:41;;;;;;;23.15;16.83;;;;;;;17.07;54.22;100035.78;5067957;28;20093;-22
2021/09/14 01:52:07;;;;;;;21.55;17.17;;;;;;;17.23;53.94;100050.13;5067241;28;20040;-22
2021/09/14 01:54:32;;;;;;;23.48;17.02;;;;;;;16.91;54.89;100026.81;5067506;28;20060;-22
2021/09/14 01:56:58;;;;;;;24.52;16.65;;;;;;;17.25;54.28;100050.69;5067866;28;20523;-22
2021/09/14 01:59:24;;;;;;;20.75;17.02;;;;;;;16.82;55.35;100023.81;5067914;28;20029;-22
2021/09/14 02:01:57;;;;;;;20.90;16.42;;;;;;;17.18;54.42;100042.84;5067248;28;20029;-22
2021/09/14 02:58:51;;;;;;;22.75;15.75;;;;;;;16.56;56.40;100073.97;5067043;28;20182;-22
2021/09/14 03:01:16;;;;;;;20.67;15.32;;;;;;;16.60;56.07;100066.19;5066834;28;20028;-23
2021/09/14 03:03:45;;;;;;;20.58;14.88;;;;;;;15.98;57.55;100071.06;5066841;28;20539;-22
2021/09/14 03:06:10;;;;;;;22.65;15.40;;;;;;;15.79;58.55;100067.94;5070447;28;20484;-23
2021/09/14 03:08:37;;;;;;;19.90;15.63;;;;;;;15.33;59.54;100047.75;5070790;28;20028;-22
2021/09/14 03:11:13;;;;;;;22.63;16.23;;;;;;;15.16;60.13;100083.56;5071255;28;20450;-22
2021/09/14 03:13:39;;;;;;;29.92;16.92;;;;;;;15.02;60.12;100071.53;5070824;28;20484;-22
2021/09/14 03:16:08;;;;;;;29.77;15.70;;;;;;;15.57;59.05;100078.69;5070741;28;20043;-23
2021/09/14 03:18:34;;;;;;;22.85;14.70;;;;;;;15.59;58.77;100056.91;5070749;28;20029;-22
2021/09/14 03:21:00;;;;;;;18.80;14.18;;;;;;;15.85;57.18;100061.53;5070543;28;20028;-22
2021/09/14 03:23:26;;;;;;;37.08;15.07;;;;;;;15.68;59.61;100080.41;5070695;28;20060;-22
2021/09/14 03:25:51;;;;;;;26.52;14.55;;;;;;;15.77;58.18;100082.66;5070481;28;20035;-22
2021/09/14 03:28:17;;;;;;;24.42;15.05;;;;;;;15.62;59.25;100075.22;5070699;28;20025;-22
2021/09/14 03:30:43;;;;;;;34.72;14.52;;;;;;;15.63;59.76;100066.91;5070641;28;20108;-22
2021/09/14 03:33:09;;;;;;;20.35;13.30;;;;;;;15.92;57.73;100074.78;5070430;28;20484;-22
2021/09/14 03:35:35;;;;;;;23.40;14.10;;;;;;;16.14;57.42;100076.56;5070303;28;20520;-22
2021/09/14 03:38:00;;;;;;;20.98;13.88;;;;;;;15.67;58.54;100081.47;5070443;28;20049;-22
2021/09/14 03:40:26;;;;;;;20.13;13.10;;;;;;;15.70;57.77;100084.72;5069431;28;20029;-22
2021/09/14 03:42:51;;;;;;;19.13;13.05;;;;;;;15.45;59.91;100096.81;5070522;28;20028;-22
2021/09/14 03:45:17;;;;;;;18.50;13.85;;;;;;;15.29;60.65;100089.63;5070310;28;20032;-22
2021/09/14 03:47:42;;;;;;;20.67;13.95;;;;;;;15.26;60.30;100099.81;5069926;28;20527;-22
2021/09/14 03:50:08;;;;;;;21.42;14.27;;;;;;;15.37;58.48;100083.81;5070320;28;20103;-22
2021/09/14 03:52:34;;;;;;;22.17;14.27;;;;;;;15.63;58.27;100077.66;5070051;28;20032;-21
2021/09/14 03:54:59;;;;;;;19.67;14.18;;;;;;;14.93;60.13;100083.75;5070603;28;20029;-21
2021/09/14 03:57:24;;;;;;;20.77;15.05;;;;;;;15.16;60.50;100096.97;5069906;28;20877;-21
2021/09/14 03:59:50;;;;;;;19.65;13.82;;;;;;;15.02;61.05;100093.03;5069789;28;20108;-22
2021/09/14 04:02:37;;;;;;;20.08;15.13;;;;;;;15.21;59.77;100086.28;5069993;28;20033;-23
2021/09/14 04:05:20;;;;;;;22.33;15.90;;;;;;;15.12;59.26;100098.53;5070109;28;20028;-22
2021/09/14 04:08:49;;;;;;;23.42;16.33;;;;;;;14.44;61.96;100105.78;5069669;28;20554;-22
2021/09/14 04:10:41;;;;;;;27.02;16.67;;;;;;;13.93;62.95;100118.31;5069717;28;20472;-23
2021/09/14 04:13:07;;;;;;;30.27;17.85;;;;;;;13.79;65.01;100117.78;5069556;28;20123;-23
2021/09/14 04:15:33;;;;;;;23.95;18.42;;;;;;;14.19;63.49;100120.41;5069280;28;20131;-22
2021/09/14 04:17:58;;;;;;;24.83;18.80;;;;;;;14.62;61.99;100116.31;5051777;28;20059;-23
2021/09/14 04:20:24;;;;;;;27.40;18.48;;;;;;;14.89;60.46;100098.72;5069524;28;20024;-22
2021/09/14 04:22:49;;;;;;;22.50;17.42;;;;;;;14.91;60.33;100092.03;5070212;28;20036;-22
2021/09/14 04:25:15;;;;;;;24.30;17.90;;;;;;;14.91;62.12;100116.22;5069540;28;20037;-22
2021/09/14 04:27:40;;;;;;;25.40;17.25;;;;;;;15.03;61.58;100116.94;5069306;28;20044;-22
2021/09/14 04:30:06;;;;;;;30.65;19.35;;;;;;;15.38;58.96;100101.53;5069479;28;20434;-22
2021/09/14 04:32:32;;;;;;;29.35;18.65;;;;;;;15.42;59.73;100119.59;5069352;28;20032;-22
2021/09/14 04:34:58;;;;;;;28.17;18.20;;;;;;;15.55;59.23;100117.59;5069203;28;20037;-22
2021/09/14 04:37:24;;;;;;;28.73;17.65;;;;;;;15.79;58.27;100118.19;5069280;28;20530;-22
2021/09/14 04:39:50;;;;;;;25.35;16.80;;;;;;;15.95;57.36;100103.84;5069056;28;20111;-22
2021/09/14 04:42:16;;;;;;;28.50;16.23;;;;;;;16.01;57.12;100131.59;5069275;28;20499;-22
2021/09/14 04:44:41;;;;;;;23.42;14.27;;;;;;;15.99;56.91;100131.84;5051583;28;20044;-22
2021/09/14 04:47:07;;;;;;;18.80;14.38;;;;;;;16.06;57.24;100139.75;5069251;28;20033;-22
2021/09/14 04:49:32;;;;;;;19.50;13.82;;;;;;;15.92;57.44;100138.50;5068890;28;20043;-23
2021/09/14 04:51:58;;;;;;;19.73;14.65;;;;;;;15.92;57.67;100133.13;5069368;28;20427;-22
2021/09/14 04:54:23;;;;;;;17.67;13.85;;;;;;;15.81;58.95;100140.25;5068940;28;20064;-22
2021/09/14 04:56:49;;;;;;;17.50;12.75;;;;;;;16.02;57.67;100142.13;5068884;28;20086;-23
2021/09/14 04:59:14;;;;;;;19.55;14.07;;;;;;;15.82;57.94;100139.19;5068911;28;20527;-22
2021/09/14 05:01:40;;;;;;;18.30;13.13;;;;;;;15.78;58.06;100138.09;5068483;28;20086;-22
2021/09/14 05:04:05;;;;;;;20.63;13.80;;;;;;;15.92;58.37;100150.06;5068714;28;20473;-22
2021/09/14 05:06:31;;;;;;;22.40;14.60;;;;;;;16.06;58.16;100134.34;5068842;28;20056;-22
2021/09/14 05:08:56;;;;;;;19.05;12.82;;;;;;;16.07;57.69;100142.16;5068700;28;20058;-22
2021/09/14 05:11:21;;;;;;;15.85;11.98;;;;;;;16.33;56.84;100150.50;5068896;28;20032;-23
2021/09/14 05:13:47;;;;;;;17.50;12.82;;;;;;;16.44;57.09;100157.56;5068792;28;20033;-22
2021/09/14 05:16:13;;;;;;;17.70;12.32;;;;;;;16.78;55.69;100127.72;5068783;28;20484;-23
2021/09/14 05:18:38;;;;;;;17.65;12.25;;;;;;;16.42;56.25;100138.19;5068540;28;20025;-22
2021/09/14 05:21:04;;;;;;;19.33;12.27;;;;;;;16.52;56.23;100152.81;5068300;28;20032;-22
2021/09/14 05:23:33;;;;;;;15.75;13.35;;;;;;;16.29;57.14;100153.94;5068506;28;20029;-22
2021/09/14 05:26:02;;;;;;;18.95;12.93;;;;;;;16.65;56.67;100157.75;5068260;28;20029;-22
2021/09/14 05:28:28;;;;;;;18.92;12.45;;;;;;;16.18;56.98;100121.56;5067672;28;20173;-22
2021/09/14 05:30:53;;;;;;;14.65;12.18;;;;;;;16.60;56.27;100155.03;5068554;28;20111;-22
2021/09/14 05:33:19;;;;;;;16.02;11.25;;;;;;;16.81;55.73;100146.06;5068318;28;20032;-23
2021/09/14 05:35:51;;;;;;;16.33;12.35;;;;;;;16.82;55.36;100134.22;5050092;28;20032;-22
2021/09/14 05:38:18;;;;;;;19.38;12.55;;;;;;;16.85;55.63;100141.78;5068013;28;20040;-22
2021/09/14 05:40:44;;;;;;;18.48;12.65;;;;;;;16.71;55.62;100129.00;5068147;28;20047;-22
2021/09/14 05:43:10;;;;;;;16.25;12.18;;;;;;;16.64;56.34;100161.53;5068024;28;20476;-22
2021/09/14 05:45:35;;;;;;;17.90;11.95;;;;;;;16.77;56.30;100158.38;5068437;28;20040;-22
2021/09/14 05:48:01;;;;;;;16.60;11.82;;;;;;;16.85;55.61;100163.31;5067753;28;20062;-22
2021/09/14 05:50:26;;;;;;;16.30;12.25;;;;;;;17.12;55.42;100162.47;5067987;28;20024;-22
2021/09/14 05:52:52;;;;;;;20.77;12.32;;;;;;;17.33;53.92;100146.41;5067867;28;20486;-22
2021/09/14 05:55:17;;;;;;;14.80;11.25;;;;;;;17.83;53.09;100162.00;5067996;28;20426;-22
2021/09/14 05:57:43;;;;;;;17.10;11.60;;;;;;;18.11;52.70;100161.84;5067598;28;20035;-22
2021/09/14 06:00:09;;;;;;;17.15;11.10;;;;;;;18.07;52.30;100151.56;5067617;28;20024;-22
2021/09/14 06:02:34;;;;;;;14.55;11.02;;;;;;;18.40;50.55;100176.44;5067528;28;20069;-22
2021/09/14 06:05:00;;;;;;;13.18;10.10;;;;;;;18.55;50.43;100166.75;5049802;28;20028;-22
2021/09/14 06:07:25;;;;;;;16.52;10.55;;;;;;;18.38;50.39;100162.41;5049643;28;20052;-23
2021/09/14 06:09:51;;;;;;;16.38;10.68;;;;;;;18.58;50.20;100171.63;5067238;28;20023;-22
2021/09/14 06:12:16;;;;;;;14.85;10.07;;;;;;;18.84;49.34;100165.16;5067733;28;20028;-22
2021/09/14 06:14:42;;;;;;;15.32;10.23;;;;;;;19.15;48.45;100154.31;5067612;28;20443;-22
2021/09/14 06:17:07;;;;;;;13.85;9.25;;;;;;;19.04;48.17;100177.00;5067908;28;20043;-23
2021/09/14 06:19:33;;;;;;;13.43;9.38;;;;;;;19.18;47.51;100166.47;5067646;28;20033;-22
2021/09/14 06:21:58;;;;;;;13.60;8.57;;;;;;;19.28;47.89;100175.34;5067491;28;20029;-22
2021/09/14 06:24:24;;;;;;;12.00;8.00;;;;;;;19.17;46.51;100172.97;5067165;28;20028;-22
2021/09/14 06:26:49;;;;;;;13.48;8.18;;;;;;;19.26;47.06;100172.09;5067195;28;20036;-22
2021/09/14 06:29:15;;;;;;;12.07;8.30;;;;;;;19.64;46.54;100175.25;5067434;28;20052;-22
2021/09/14 06:31:40;;;;;;;13.18;8.43;;;;;;;19.68;45.95;100173.63;5067293;28;20704;-23
2021/09/14 06:34:06;;;;;;;12.82;7.95;;;;;;;19.94;46.20;100178.97;5067106;28;20028;-22
2021/09/14 06:36:31;;;;;;;11.70;8.55;;;;;;;19.99;45.14;100186.22;5049318;28;20040;-22
2021/09/14 06:38:57;;;;;;;12.40;8.40;;;;;;;20.15;45.44;100184.25;5066718;28;20031;-22
2021/09/14 06:41:22;;;;;;;13.40;8.85;;;;;;;20.04;45.44;100186.19;5067169;28;20033;-22
2021/09/14 06:43:48;;;;;;;11.60;8.88;;;;;;;20.35;44.32;100181.41;5067076;28;20404;-22
2021/09/14 06:46:14;;;;;;;14.98;8.38;;;;;;;20.86;44.65;100183.78;5066401;28;20096;-23
2021/09/14 06:48:39;;;;;;;13.40;8.60;;;;;;;20.90;44.20;100188.59;5066495;28;20025;-23
2021/09/14 06:51:04;;;;;;;11.40;8.25;;;;;;;20.96;44.50;100184.75;5066313;28;20036;-22
2021/09/14 06:53:31;;;;;;;11.80;8.40;;;;;;;21.06;44.25;100190.91;5066314;28;20048;-22
2021/09/14 06:55:56;;;;;;;12.57;8.23;;;;;;;21.15;44.21;100193.81;5067014;28;20021;-22
2021/09/14 06:58:22;;;;;;;12.20;8.63;;;;;;;21.24;44.10;100188.56;5066990;28;20040;-22
2021/09/14 07:00:48;;;;;;;13.95;8.40;;;;;;;21.40;43.70;100187.31;5066865;28;20032;-22
2021/09/14 07:03:13;;;;;;;15.52;7.95;;;;;;;21.22;43.76;100201.59;5066918;28;20032;-22
2021/09/14 07:05:39;;;;;;;15.07;8.93;;;;;;;21.41;43.54;100190.81;5066783;28;20024;-22
2021/09/14 07:08:05;;;;;;;13.75;8.93;;;;;;;21.51;43.32;100185.31;5066860;28;20037;-22
2021/09/14 07:10:30;;;;;;;13.02;8.95;;;;;;;21.54;43.09;100179.31;5066848;28;20086;-22
2021/09/14 07:12:56;;;;;;;13.93;8.50;;;;;;;21.87;42.29;100187.59;5067104;28;20845;-22
2021/09/14 07:15:21;;;;;;;11.60;7.63;;;;;;;22.17;42.34;100196.41;5066736;28;20044;-22
2021/09/14 07:17:47;;;;;;;15.63;8.63;;;;;;;22.41;42.06;100197.22;5066289;28;20043;-22
2021/09/14 07:20:12;;;;;;;14.50;8.50;;;;;;;22.42;42.23;100203.44;5066492;28;20028;-22
2021/09/14 07:22:38;;;;;;;12.52;8.43;;;;;;;22.51;41.53;100200.84;5066431;28;20033;-22
2021/09/14 07:25:04;;;;;;;11.93;8.25;;;;;;;22.57;41.61;100183.38;5066567;28;20029;-22
2021/09/14 07:27:29;;;;;;;12.32;7.78;;;;;;;23.08;40.50;100204.28;5066594;28;20025;-22
2021/09/14 07:29:55;;;;;;;14.35;11.90;;;;;;;22.96;39.95;100190.34;5066469;28;20063;-22
2021/09/14 07:32:20;;;;;;;11.45;8.02;;;;;;;22.98;39.55;100194.38;5066701;28;20098;-22
2021/09/14 07:34:46;;;;;;;14.43;8.02;;;;;;;22.94;40.09;100206.94;5066722;28;20911;-22
2021/09/14 07:37:11;;;;;;;13.55;7.88;;;;;;;23.31;40.24;100209.88;5066443;28;20078;-22
2021/09/14 07:39:37;;;;;;;20.02;13.05;;;;;;;23.51;39.03;100185.00;5066700;28;20020;-22
2021/09/14 07:42:02;;;;;;;12.95;8.23;;;;;;;23.79;38.28;100206.81;5066804;28;20820;-22
2021/09/14 07:44:28;;;;;;;10.70;6.93;;;;;;;23.96;37.94;100204.25;5066495;28;20036;-22
2021/09/14 07:46:53;;;;;;;10.25;7.50;;;;;;;24.31;37.92;100212.75;5066875;28;20411;-22
2021/09/14 07:49:19;;;;;;;12.90;7.63;;;;;;;24.28;36.93;100216.09;5066567;28;20523;-22
2021/09/14 07:51:44;;;;;;;9.52;7.03;;;;;;;24.39;36.00;100209.28;5050794;28;20123;-22
2021/09/14 07:54:10;;;;;;;11.90;7.13;;;;;;;24.29;36.48;100206.78;5069880;28;20134;-22
2021/09/14 07:56:35;;;;;;;14.13;9.40;;;;;;;24.64;37.15;100196.19;5070111;28;20033;-22
2021/09/14 07:59:02;;;;;;;11.20;7.15;;;;;;;24.83;36.27;100196.81;5070107;28;20031;-22
2021/09/14 08:01:28;;;;;;;11.52;7.53;;;;;;;24.98;36.05;100213.91;5069855;28;20032;-22
2021/09/14 08:03:53;;;;;;;10.75;7.20;;;;;;;25.04;34.92;100196.28;5069833;28;20115;-22
2021/09/14 08:06:19;;;;;;;10.68;7.03;;;;;;;25.10;35.38;100211.41;5069742;28;20032;-22
2021/09/14 08:08:44;;;;;;;10.85;6.75;;;;;;;25.29;36.26;100218.59;5052335;28;20038;-22
2021/09/14 08:11:10;;;;;;;11.38;6.43;;;;;;;25.46;34.02;100199.59;5070144;28;20025;-22
2021/09/14 08:13:36;;;;;;;11.93;7.25;;;;;;;25.52;33.39;100216.59;5069645;28;20089;-22
2021/09/14 08:16:03;;;;;;;11.75;6.50;;;;;;;25.58;32.68;100205.25;5069386;28;20033;-22
2021/09/14 08:18:29;;;;;;;11.38;7.25;;;;;;;25.96;32.17;100210.19;5069860;28;20032;-22
2021/09/14 08:20:54;;;;;;;16.65;7.88;;;;;;;26.38;32.20;100207.03;5052382;28;20393;-22
2021/09/14 08:23:19;;;;;;;9.73;7.13;;;;;;;26.34;32.31;100208.78;5070226;28;20036;-22
2021/09/14 08:25:45;;;;;;;10.55;6.90;;;;;;;26.30;32.01;100203.16;5069400;28;20432;-22
2021/09/14 08:28:10;;;;;;;11.45;6.72;;;;;;;26.26;33.19;100204.91;5069816;28;20033;-22
2021/09/14 08:30:36;;;;;;;12.65;7.68;;;;;;;26.22;32.51;100207.47;5069569;28;20076;-22
2021/09/14 08:33:02;;;;;;;12.05;6.85;;;;;;;26.56;33.50;100200.41;5069433;28;20496;-22
2021/09/14 08:35:27;;;;;;;10.15;7.40;;;;;;;26.67;33.47;100189.19;5068646;28;20040;-22
2021/09/14 08:37:53;;;;;;;14.40;6.80;;;;;;;26.49;31.42;100188.34;5068117;28;20036;-22
2021/09/14 08:40:18;;;;;;;11.45;7.30;;;;;;;26.60;31.63;100168.59;5068974;28;20040;-22
2021/09/14 08:42:44;;;;;;;12.55;6.63;;;;;;;26.90;31.73;100181.56;5069413;28;20024;-22
2021/09/14 08:45:10;;;;;;;10.75;6.53;;;;;;;26.96;30.22;100192.00;5051311;28;20039;-22
2021/09/14 08:47:38;;;;;;;11.32;7.18;;;;;;;27.19;30.20;100191.75;5069456;28;20024;-22
2021/09/14 08:50:05;;;;;;;10.10;6.70;;;;;;;27.61;30.23;100190.00;5069290;28;20460;-22
2021/09/14 08:52:31;;;;;;;9.38;6.25;;;;;;;27.71;29.10;100194.31;5069165;28;20039;-22
2021/09/14 08:54:57;;;;;;;11.50;6.32;;;;;;;27.51;31.05;100193.13;5069167;28;20128;-22
2021/09/14 08:57:22;;;;;;;12.82;6.72;;;;;;;27.94;31.07;100180.34;5069271;28;20193;-22
2021/09/14 08:59:48;;;;;;;10.52;6.65;;;;;;;28.12;30.26;100175.53;5068751;28;20040;-22
2021/09/14 09:02:16;;;;;;;10.65;6.68;;;;;;;28.07;28.53;100186.69;5068960;28;20472;-22
2021/09/14 09:04:59;;;;;;;9.23;6.13;;;;;;;28.30;30.01;100166.03;5068700;28;20058;-22
2021/09/14 09:07:35;;;;;;;10.50;6.50;;;;;;;28.84;28.35;100174.22;5068875;28;20024;-22
2021/09/14 09:10:08;;;;;;;15.73;6.88;;;;;;;28.64;27.31;100159.41;5051767;28;20025;-22
2021/09/14 09:12:37;;;;;;;11.52;6.82;;;;;;;28.47;29.00;100165.06;5068392;28;20024;-22
2021/09/14 09:15:02;;;;;;;9.65;6.35;;;;;;;28.60;29.44;100152.22;5068485;28;20043;-22
2021/09/14 09:17:28;;;;;;;8.70;6.53;;;;;;;29.00;28.78;100171.63;5068477;28;20412;-22
2021/09/14 09:20:00;;;;;;;10.35;6.35;;;;;;;29.19;28.20;100156.59;5068169;28;20032;-22
2021/09/14 09:22:26;;;;;;;11.90;6.30;;;;;;;29.02;28.01;100152.09;5068195;28;20052;-22
2021/09/14 09:24:52;;;;;;;10.85;6.93;;;;;;;29.39;27.82;100161.16;5068640;28;20476;-22
2021/09/14 09:27:25;;;;;;;9.93;6.93;;;;;;;29.21;27.30;100148.81;5068465;28;20024;-22
2021/09/14 09:30:00;;;;;;;10.95;6.65;;;;;;;28.99;28.29;100152.75;5068465;28;20263;-22
2021/09/14 09:32:26;;;;;;;10.05;6.28;;;;;;;29.11;27.67;100138.28;5068393;28;20133;-22
2021/09/14 09:34:58;;;;;;;11.75;6.43;;;;;;;28.55;27.74;100133.22;5068235;28;20825;-22
2021/09/14 09:37:24;;;;;;;9.43;6.35;;;;;;;29.02;26.92;100152.09;5068192;28;20036;-22
2021/09/14 09:39:49;;;;;;;11.48;6.95;;;;;;;29.76;26.86;100152.91;5067817;28;20025;-22
2021/09/14 09:42:15;;;;;;;10.77;6.57;;;;;;;30.12;26.85;100151.22;5068050;28;20044;-22
2021/09/14 09:44:52;;;;;;;10.68;6.88;;;;;;;29.78;25.94;100138.84;5067973;28;20078;-22
2021/09/14 09:47:17;;;;;;;9.80;6.35;;;;;;;29.96;26.46;100137.41;5068149;28;20040;-22
2021/09/14 09:49:43;;;;;;;10.57;6.45;;;;;;;29.68;25.74;100139.28;5049853;28;20111;-22
2021/09/14 09:52:18;;;;;;;14.60;6.43;;;;;;;29.81;25.75;100140.88;5050021;28;20044;-22
2021/09/14 09:54:45;;;;;;;10.98;5.80;;;;;;;29.93;25.76;100124.34;5067538;28;20141;-22
2021/09/14 09:57:10;;;;;;;11.27;6.70;;;;;;;30.15;26.16;100146.97;5067904;28;20021;-22
2021/09/14 09:59:37;;;;;;;13.40;6.85;;;;;;;30.40;24.54;100142.19;5067212;28;20127;-22
2021/09/14 10:02:13;;;;;;;9.75;6.20;;;;;;;30.24;26.28;100142.16;5067786;28;20123;-22
2021/09/14 10:04:44;;;;;;;11.05;6.38;;;;;;;29.94;26.22;100136.97;5049774;28;20397;-22
2021/09/14 10:07:11;;;;;;;10.65;5.75;;;;;;;29.62;25.86;100114.78;5033855;28;20136;-22
2021/09/14 10:09:37;;;;;;;9.63;6.47;;;;;;;29.71;27.65;100111.13;5049450;28;20071;-22
2021/09/14 10:12:02;;;;;;;9.20;6.10;;;;;;;30.22;27.38;100125.19;5049555;28;20071;-22
2021/09/14 10:14:28;;;;;;;8.43;5.95;;;;;;;29.74;26.04;100121.44;5067121;28;20028;-22
2021/09/14 10:17:03;;;;;;;10.15;6.00;;;;;;;30.26;25.75;100115.09;5049718;28;20062;-22
2021/09/14 10:19:30;;;;;;;9.48;6.20;;;;;;;30.53;25.10;100118.19;5049550;28;20029;-22
2021/09/14 10:22:05;;;;;;;9.05;6.20;;;;;;;30.15;25.69;100122.22;5067184;28;20036;-22
2021/09/14 10:24:32;;;;;;;11.75;6.28;;;;;;;30.36;27.66;100113.78;5067412;28;20508;-22
2021/09/14 10:27:07;;;;;;;11.38;6.50;;;;;;;30.79;26.00;100124.00;5067373;28;20453;-22
2021/09/14 10:29:32;;;;;;;9.90;6.50;;;;;;;31.20;25.52;100119.13;5067481;28;20068;-22
2021/09/14 10:32:05;;;;;;;8.73;5.95;;;;;;;30.15;25.21;100109.25;5067087;28;20032;-22
2021/09/14 10:34:31;;;;;;;12.63;6.40;;;;;;;29.56;26.30;100107.91;5067220;28;20025;-22
2021/09/14 10:37:04;;;;;;;9.53;6.57;;;;;;;29.89;27.11;100111.66;5067228;28;20556;-22
2021/09/14 10:39:43;;;;;;;10.80;6.40;;;;;;;30.72;24.57;100110.03;5067082;28;20035;-23
2021/09/14 10:42:18;;;;;;;9.38;5.78;;;;;;;31.42;24.04;100114.09;5067213;28;20048;-22
2021/09/14 10:44:45;;;;;;;12.35;6.15;;;;;;;31.18;23.33;100093.06;5067478;28;20031;-22
2021/09/14 10:47:14;;;;;;;10.17;6.27;;;;;;;31.31;23.12;100113.06;5067341;28;20090;-22
2021/09/14 10:49:42;;;;;;;10.30;6.38;;;;;;;31.31;23.81;100108.34;5066890;28;20036;-22
2021/09/14 10:52:08;;;;;;;9.25;6.30;;;;;;;31.47;23.82;100096.50;5067237;28;20086;-22
2021/09/14 10:54:49;;;;;;;10.02;6.35;;;;;;;31.81;23.41;100097.66;5067017;28;20064;-22
2021/09/14 10:57:15;;;;;;;9.00;5.70;;;;;;;31.69;22.69;100095.03;5066996;28;20493;-22
2021/09/14 10:59:50;;;;;;;10.20;5.90;;;;;;;31.72;22.02;100094.31;5066713;28;20025;-22
2021/09/14 11:02:16;;;;;;;8.30;6.03;;;;;;;32.05;23.98;100082.00;5067039;28;20484;-22
2021/09/14 11:04:42;;;;;;;8.80;6.60;;;;;;;32.34;22.69;100088.88;5067204;28;20038;-22
2021/09/14 11:07:17;;;;;;;9.32;5.97;;;;;;;31.66;23.58;100084.72;5067238;28;20036;-22
2021/09/14 11:09:43;;;;;;;9.25;6.13;;;;;;;31.57;22.96;100082.97;5066558;28;20029;-22
2021/09/14 11:12:22;;;;;;;12.13;6.27;;;;;;;31.58;22.39;100083.78;5066946;28;20037;-22
2021/09/14 11:14:48;;;;;;;10.00;6.50;;;;;;;31.34;23.26;100062.75;5067320;28;20492;-22
2021/09/14 11:17:33;;;;;;;9.63;6.35;;;;;;;31.76;22.98;100064.88;5066958;28;20021;-22
2021/09/14 11:20:15;;;;;;;10.13;6.68;;;;;;;32.28;22.61;100059.97;5066641;28;20492;-22
2021/09/14 11:22:42;;;;;;;8.70;5.82;;;;;;;32.20;22.08;100061.81;5067014;28;20035;-22
2021/09/14 11:25:18;;;;;;;10.55;5.90;;;;;;;32.63;21.39;100059.81;5067045;28;20041;-22
2021/09/14 11:28:02;;;;;;;10.90;5.73;;;;;;;32.12;21.27;100046.28;5070497;28;20101;-22
2021/09/14 11:30:29;;;;;;;12.05;6.13;;;;;;;32.25;22.65;100060.72;5070582;28;20262;-22
2021/09/14 11:32:55;;;;;;;8.73;6.15;;;;;;;31.58;23.20;100064.47;5070605;28;20028;-22
2021/09/14 11:35:21;;;;;;;9.00;6.40;;;;;;;31.38;22.80;100047.09;5070569;28;20032;-22
2021/09/14 11:38:00;;;;;;;9.95;6.25;;;;;;;32.03;21.51;100043.75;5052486;28;20116;-22
2021/09/14 11:40:26;;;;;;;11.00;7.15;;;;;;;32.31;21.74;100046.25;5070587;28;20028;-22
2021/09/14 11:43:02;;;;;;;10.63;6.68;;;;;;;31.91;23.39;100036.41;5070443;28;20123;-22
2021/09/14 11:45:31;;;;;;;8.88;6.38;;;;;;;32.22;21.50;100031.88;5070364;28;20090;-22
2021/09/14 11:47:57;;;;;;;11.48;6.25;;;;;;;31.97;22.67;100032.19;5070010;28;20067;-22
2021/09/14 11:50:30;;;;;;;9.95;6.32;;;;;;;32.37;22.41;100035.72;5070481;28;20473;-22
2021/09/14 11:53:13;;;;;;;10.07;6.28;;;;;;;32.36;21.94;100040.41;5070167;28;20044;-22
2021/09/14 11:55:46;;;;;;;13.50;6.20;;;;;;;31.91;22.02;100039.16;5069823;28;20144;-22
2021/09/14 11:58:12;;;;;;;9.07;5.65;;;;;;;32.41;22.42;100042.09;5070197;28;20545;-22
2021/09/14 12:00:42;;;;;;;12.23;6.68;;;;;;;32.37;22.26;100019.94;5069918;28;20033;-22
2021/09/14 12:03:08;;;;;;;9.43;6.55;;;;;;;32.67;22.38;100044.13;5070429;28;20029;-22
2021/09/14 12:05:34;;;;;;;9.55;5.45;;;;;;;33.29;20.66;100040.38;5070073;28;20044;-22
2021/09/14 12:08:00;;;;;;;8.90;5.40;;;;;;;33.45;20.12;100034.63;5069792;28;20036;-22